Time;durP1;ratioP1;P1;durP2;ratioP2;P2;SDS_P1;SDS_P2;PMS_P1;PMS_P2;Temp;Humidity;BMP_temperature;BMP_pressure;BME280_temperature;BME280_humidity;BME280_pressure;Samples;Min_cycle;Max_cycle;Signal;HPM_P1;HPM_P2
2022/01/27 00:05:37;;;;;;;;;;;;;;;2.57;93.57;102815.03;5095694;28;20391;-82
2022/01/27 00:12:55;;;;;;;44.13;23.30;;;;;;;2.51;93.13;102804.50;5100430;28;20036;-80
2022/01/27 00:15:28;;;;;;;47.70;24.38;;;;;;;2.56;93.16;102791.81;5112605;28;20016;-81
2022/01/27 00:17:58;;;;;;;47.60;23.17;;;;;;;2.56;93.06;102800.44;5111785;28;20034;-81
2022/01/27 00:20:24;;;;;;;48.83;24.45;;;;;;;2.56;93.13;102779.81;5111943;28;20061;-81
2022/01/27 00:22:49;;;;;;;48.55;24.48;;;;;;;2.56;93.36;102764.38;5105984;28;20484;-81
2022/01/27 00:25:14;;;;;;;44.72;22.30;;;;;;;2.55;92.95;102772.94;5112699;28;20043;-81
2022/01/27 00:27:40;;;;;;;48.58;24.73;;;;;;;2.55;93.21;102764.28;5113032;28;20053;-82
2022/01/27 00:30:07;;;;;;;45.33;23.75;;;;;;;2.57;93.62;102771.28;5114214;28;20032;-81
2022/01/27 00:32:33;;;;;;;44.80;23.77;;;;;;;2.56;93.03;102766.94;5112245;28;20039;-81
2022/01/27 00:34:59;;;;;;;47.08;24.90;;;;;;;2.58;92.55;102773.06;5113471;28;20467;-81
2022/01/27 00:37:26;;;;;;;48.78;23.92;;;;;;;2.62;92.95;102778.31;5112088;28;20030;-81
2022/01/27 00:39:51;;;;;;;46.83;23.92;;;;;;;2.59;92.61;102771.34;5099998;28;20505;-81
2022/01/27 00:42:16;;;;;;;46.33;22.92;;;;;;;2.61;92.83;102768.81;5114017;28;20081;-81
2022/01/27 00:44:42;;;;;;;45.33;24.15;;;;;;;2.66;92.91;102767.31;5112445;28;20405;-81
2022/01/27 00:47:07;;;;;;;44.35;23.65;;;;;;;2.68;93.16;102778.53;5112813;28;20084;-81
2022/01/27 00:49:33;;;;;;;44.05;23.77;;;;;;;2.68;92.32;102763.09;5112581;27;20027;-81
2022/01/27 00:52:00;;;;;;;44.85;23.95;;;;;;;2.68;92.32;102766.56;5113420;28;20446;-82
2022/01/27 00:54:28;;;;;;;44.95;23.77;;;;;;;2.68;93.03;102745.06;5108915;28;20111;-81
2022/01/27 00:57:13;;;;;;;44.00;23.55;;;;;;;2.73;92.86;102748.72;5113467;27;20027;-81
2022/01/27 01:00:00;;;;;;;47.47;23.90;;;;;;;2.72;92.57;102758.16;5110874;28;20035;-81
2022/01/27 01:02:51;;;;;;;46.38;24.08;;;;;;;2.73;92.90;102747.00;5093217;28;20485;-81
2022/01/27 01:05:43;;;;;;;43.05;23.38;;;;;;;2.75;92.77;102742.81;5104622;28;20132;-81
2022/01/27 01:08:57;;;;;;;45.33;23.80;;;;;;;2.74;92.62;102740.16;5099988;28;20031;-81
2022/01/27 01:29:20;;;;;;;44.35;23.23;;;;;;;2.72;92.28;102716.94;5100587;28;20061;-81
2022/01/27 01:34:54;;;;;;;41.35;21.48;;;;;;;2.85;92.15;102727.72;5092192;28;20046;-82
2022/01/27 01:37:19;;;;;;;41.17;23.38;;;;;;;2.86;91.90;102714.00;5104817;28;20032;-81
2022/01/27 01:39:45;;;;;;;42.00;22.88;;;;;;;2.88;92.31;102715.81;5091913;28;20161;-81
2022/01/27 01:42:11;;;;;;;40.65;22.45;;;;;;;2.89;92.16;102715.00;5091792;28;20032;-82
2022/01/27 01:44:40;;;;;;;48.53;23.38;;;;;;;2.88;91.84;102686.59;5099988;28;20552;-82
2022/01/27 01:47:06;;;;;;;42.67;22.73;;;;;;;2.86;92.08;102678.81;5093792;28;20115;-82
2022/01/27 01:49:31;;;;;;;40.25;23.73;;;;;;;2.92;91.77;102678.19;5094998;28;20028;-81
2022/01/27 01:52:04;;;;;;;42.38;22.98;;;;;;;2.92;91.79;102679.03;5104321;28;20035;-81
2022/01/27 01:54:29;;;;;;;40.22;22.17;;;;;;;2.94;91.36;102667.13;5111479;28;20019;-81
2022/01/27 01:56:55;;;;;;;42.08;22.27;;;;;;;2.91;91.73;102672.16;5107166;28;20031;-81
2022/01/27 01:59:20;;;;;;;39.03;22.27;;;;;;;2.94;91.87;102682.56;5110104;28;20024;-81
2022/01/27 02:01:46;;;;;;;42.70;22.77;;;;;;;2.97;91.34;102689.50;5110106;28;20028;-81
2022/01/27 02:04:12;;;;;;;41.40;21.48;;;;;;;2.99;91.24;102680.16;5108851;28;20394;-82
2022/01/27 02:06:54;;;;;;;41.75;22.40;;;;;;;2.99;91.12;102688.75;5109865;28;20459;-81
2022/01/27 02:20:07;;;;;;;;;;;;;;;3.00;92.53;102643.25;5109326;28;20037;-81
2022/01/27 02:22:33;;;;;;;43.83;21.25;;;;;;;2.96;91.56;102623.34;5092845;28;19951;-81
2022/01/27 02:24:58;;;;;;;40.05;21.10;;;;;;;2.97;91.97;102627.69;5092310;28;20072;-81
2022/01/27 02:27:23;;;;;;;41.17;21.27;;;;;;;2.93;92.38;102620.66;5098208;28;20062;-81
2022/01/27 02:29:49;;;;;;;43.38;21.95;;;;;;;2.93;91.95;102629.25;5110422;27;20030;-81
2022/01/27 02:32:16;;;;;;;39.28;20.98;;;;;;;3.00;92.07;102641.53;5108965;28;20027;-81
2022/01/27 02:34:41;;;;;;;36.78;19.65;;;;;;;2.98;91.75;102637.19;5110059;28;20031;-81
2022/01/27 02:37:08;;;;;;;39.33;21.13;;;;;;;3.06;92.05;102648.63;5105205;28;20028;-81
2022/01/27 02:39:33;;;;;;;40.60;21.60;;;;;;;3.05;92.00;102640.03;5099871;28;20055;-81
2022/01/27 02:42:36;;;;;;;37.05;20.80;;;;;;;3.05;92.27;102642.59;5096541;28;20466;-81
2022/01/27 02:45:12;;;;;;;40.08;20.75;;;;;;;3.02;92.98;102614.16;5091152;28;20048;-81
2022/01/27 02:47:38;;;;;;;35.85;20.85;;;;;;;3.03;92.49;102615.03;5092974;28;20020;-81
2022/01/27 02:50:05;;;;;;;38.25;20.00;;;;;;;3.01;92.64;102620.13;5098042;28;21682;-81
2022/01/27 02:52:30;;;;;;;41.30;22.15;;;;;;;3.03;93.02;102615.88;5109405;28;20374;-81
2022/01/27 02:54:56;;;;;;;40.97;21.33;;;;;;;3.02;92.82;102616.72;5109714;28;20036;-81
2022/01/27 02:57:22;;;;;;;46.20;21.92;;;;;;;3.04;92.81;102620.25;5093069;28;20024;-81
2022/01/27 02:59:47;;;;;;;37.03;20.52;;;;;;;3.00;93.26;102605.47;5094232;28;20502;-81
2022/01/27 03:02:12;;;;;;;40.63;21.77;;;;;;;3.05;93.04;102603.94;5094197;28;20052;-81
2022/01/27 03:04:38;;;;;;;35.58;19.92;;;;;;;3.07;92.91;102592.81;5103280;28;20031;-81
2022/01/27 03:07:05;;;;;;;39.83;20.40;;;;;;;3.05;92.77;102593.66;5095746;28;20459;-81
2022/01/27 03:09:34;;;;;;;39.33;21.38;;;;;;;3.05;93.27;102577.31;5099909;28;20032;-81
2022/01/27 03:12:06;;;;;;;38.30;20.67;;;;;;;3.07;93.09;102585.94;5101797;28;20023;-81
2022/01/27 03:14:32;;;;;;;41.35;21.30;;;;;;;3.07;92.85;102579.94;5098887;28;20023;-81
2022/01/27 03:16:59;;;;;;;41.58;20.70;;;;;;;3.04;93.20;102585.84;5110257;28;20049;-81
2022/01/27 03:19:25;;;;;;;42.83;21.05;;;;;;;3.01;93.61;102591.78;5101766;28;20084;-82
2022/01/27 03:21:52;;;;;;;42.65;20.65;;;;;;;3.09;93.11;102598.91;5090525;28;20024;-81
2022/01/27 03:24:18;;;;;;;42.58;20.70;;;;;;;3.09;93.79;102584.31;5103235;28;20094;-81
2022/01/27 03:26:44;;;;;;;41.53;20.08;;;;;;;3.10;93.54;102572.31;5103103;28;20483;-81
2022/01/27 03:29:09;;;;;;;38.75;19.75;;;;;;;3.09;93.55;102567.97;5107925;28;20028;-81
2022/01/27 03:31:35;;;;;;;41.60;22.02;;;;;;;3.03;93.36;102569.50;5113852;28;20428;-81
2022/01/27 03:34:00;;;;;;;40.92;20.65;;;;;;;3.02;93.69;102559.16;5096568;28;20038;-82
2022/01/27 03:36:25;;;;;;;40.63;19.92;;;;;;;2.99;93.56;102557.34;5113156;28;20028;-81
2022/01/27 03:38:51;;;;;;;44.00;21.52;;;;;;;3.02;94.07;102554.00;5113516;28;20032;-81
2022/01/27 03:41:20;;;;;;;42.35;20.58;;;;;;;2.97;94.14;102560.69;5095903;27;20031;-81
2022/01/27 03:43:47;;;;;;;43.00;19.65;;;;;;;2.86;94.30;102547.44;5105305;28;20066;-82
2022/01/27 03:46:12;;;;;;;37.53;19.85;;;;;;;2.84;94.82;102555.94;5102785;28;20114;-82
2022/01/27 03:48:38;;;;;;;39.85;21.05;;;;;;;2.80;95.09;102554.94;5111049;28;20099;-82
2022/01/27 03:51:03;;;;;;;40.58;21.55;;;;;;;2.73;95.50;102559.00;5098854;28;20085;-81
2022/01/27 03:53:29;;;;;;;39.80;20.10;;;;;;;2.71;96.11;102564.91;5094853;28;20028;-81
2022/01/27 03:55:55;;;;;;;40.25;20.95;;;;;;;2.71;96.51;102564.91;5094541;28;20020;-81
2022/01/27 03:58:20;;;;;;;38.45;20.55;;;;;;;2.76;96.11;102558.25;5103822;28;20023;-81
2022/01/27 04:00:46;;;;;;;40.38;20.40;;;;;;;2.85;96.23;102558.56;5097441;28;20039;-82
2022/01/27 04:03:14;;;;;;;43.20;20.17;;;;;;;2.87;96.29;102549.19;5095318;28;20032;-81
2022/01/27 04:05:43;;;;;;;43.90;19.40;;;;;;;2.91;96.19;102538.19;5094286;28;20032;-82
2022/01/27 04:08:11;;;;;;;40.58;20.73;;;;;;;2.89;95.90;102533.78;5094906;28;20050;-82
2022/01/27 04:10:38;;;;;;;40.58;20.75;;;;;;;2.94;96.01;102542.53;5112010;28;20110;-81
2022/01/27 04:13:05;;;;;;;41.85;20.30;;;;;;;2.92;96.25;102539.94;5105863;28;20028;-81
2022/01/27 04:15:30;;;;;;;41.35;19.92;;;;;;;2.92;96.49;102527.03;5102804;28;20485;-81
2022/01/27 04:17:56;;;;;;;40.03;19.60;;;;;;;2.88;96.17;102511.41;5098360;28;20032;-81
2022/01/27 04:20:21;;;;;;;40.28;19.15;;;;;;;2.86;96.56;102503.66;5098203;28;20423;-81
2022/01/27 04:22:47;;;;;;;41.63;19.83;;;;;;;2.86;96.42;102513.06;5103645;28;20424;-81
2022/01/27 04:25:14;;;;;;;38.88;19.95;;;;;;;2.80;96.84;102522.31;5108728;28;20039;-82
2022/01/27 04:27:45;;;;;;;39.20;20.00;;;;;;;2.74;97.24;102510.94;5101308;28;20470;-81
2022/01/27 04:30:22;;;;;;;41.20;18.73;;;;;;;2.80;97.44;102519.75;5100402;28;20411;-81
2022/01/27 04:32:55;;;;;;;40.65;20.75;;;;;;;2.88;97.34;102521.72;5094770;28;20402;-81
2022/01/27 04:35:24;;;;;;;36.53;19.27;;;;;;;2.85;97.13;102522.50;5095309;28;20046;-82
2022/01/27 04:37:58;;;;;;;39.47;20.02;;;;;;;2.91;97.24;102519.25;5094779;28;20091;-81
2022/01/27 04:40:40;;;;;;;43.75;19.48;;;;;;;2.94;97.55;102519.34;5109656;28;20051;-81
2022/01/27 04:43:16;;;;;;;42.97;18.48;;;;;;;2.93;97.28;102500.44;5101147;28;20103;-81
2022/01/27 04:48:29;;;;;;;43.78;20.33;;;;;;;2.72;97.75;102489.41;5103849;28;20050;-81
2022/01/27 04:50:57;;;;;;;41.97;19.15;;;;;;;2.71;97.72;102500.53;5098100;28;20070;-81
2022/01/27 04:53:29;;;;;;;37.53;19.55;;;;;;;2.61;98.05;102494.16;5108346;28;20032;-81
2022/01/27 04:55:57;;;;;;;41.30;20.08;;;;;;;2.62;98.26;102495.06;5102557;28;20028;-81
2022/01/27 04:58:30;;;;;;;42.85;20.88;;;;;;;2.62;98.49;102495.94;5109099;28;20027;-81
2022/01/27 05:00:58;;;;;;;42.25;18.98;;;;;;;2.57;98.60;102490.63;5094326;28;20032;-81
2022/01/27 05:03:35;;;;;;;41.78;20.38;;;;;;;2.51;99.43;102469.78;5101808;28;20424;-81
2022/01/27 05:06:00;;;;;;;39.85;20.52;;;;;;;2.53;99.43;102478.47;5113325;28;20020;-81
2022/01/27 05:08:26;;;;;;;39.95;18.45;;;;;;;2.47;99.31;102457.63;5111771;28;20481;-81
2022/01/27 05:11:07;;;;;;;39.70;20.42;;;;;;;2.49;99.56;102471.47;5114047;27;20411;-81
2022/01/27 05:13:40;;;;;;;39.13;19.67;;;;;;;2.48;99.84;102469.69;5104257;28;20015;-82
2022/01/27 05:16:06;;;;;;;37.17;18.27;;;;;;;2.50;99.66;102470.63;5110943;28;20467;-81
2022/01/27 05:18:31;;;;;;;39.75;19.90;;;;;;;2.52;99.92;102461.28;5104668;28;20030;-82
2022/01/27 05:20:56;;;;;;;42.80;21.02;;;;;;;2.49;99.93;102455.13;5109655;28;20036;-82
2022/01/27 05:23:22;;;;;;;41.08;21.30;;;;;;;2.49;100.00;102450.88;5110032;28;20021;-82
2022/01/27 05:25:47;;;;;;;41.40;20.05;;;;;;;2.53;100.00;102452.72;5101907;28;20028;-82
2022/01/27 05:28:12;;;;;;;42.58;19.70;;;;;;;2.52;100.00;102456.13;5092701;28;20046;-81
2022/01/27 05:30:38;;;;;;;41.55;19.67;;;;;;;2.55;100.00;102445.94;5109556;28;20475;-81
2022/01/27 05:33:03;;;;;;;41.40;18.48;;;;;;;2.61;100.00;102449.53;5097423;28;20020;-82
2022/01/27 05:35:29;;;;;;;39.88;19.90;;;;;;;2.72;100.00;102443.06;5093273;28;20107;-82
2022/01/27 05:37:54;;;;;;;44.22;20.27;;;;;;;2.81;100.00;102438.19;5094256;28;20409;-81
2022/01/27 05:40:19;;;;;;;36.35;18.55;;;;;;;2.87;99.27;102433.25;5100264;28;20046;-81
2022/01/27 05:42:45;;;;;;;41.80;19.75;;;;;;;2.87;99.60;102422.09;5109479;28;20024;-81
2022/01/27 05:45:10;;;;;;;42.22;19.83;;;;;;;2.90;99.31;102427.34;5092898;28;20122;-82
2022/01/27 05:47:35;;;;;;;37.53;19.65;;;;;;;2.99;99.22;102422.50;5097129;28;20020;-81
2022/01/27 05:50:01;;;;;;;41.88;19.60;;;;;;;3.06;98.63;102421.88;5101538;28;20059;-82
2022/01/27 05:52:26;;;;;;;39.92;20.27;;;;;;;3.12;98.45;102426.34;5094233;28;20024;-82
2022/01/27 05:54:51;;;;;;;40.38;19.98;;;;;;;3.19;98.74;102423.16;5110720;28;20023;-81
2022/01/27 05:57:16;;;;;;;40.70;19.98;;;;;;;3.24;98.29;102431.91;5095357;28;20059;-81
2022/01/27 05:59:42;;;;;;;39.28;19.05;;;;;;;3.23;97.98;102422.41;5092198;28;20092;-82
2022/01/27 06:02:07;;;;;;;39.25;19.65;;;;;;;3.28;98.18;102423.44;5103397;28;20489;-81
2022/01/27 06:04:32;;;;;;;40.25;20.70;;;;;;;3.32;97.90;102427.88;5110683;28;20387;-81
2022/01/27 06:06:58;;;;;;;38.17;18.48;;;;;;;3.27;97.34;102404.53;5093342;28;20039;-81
2022/01/27 06:09:23;;;;;;;42.20;19.27;;;;;;;3.40;97.57;102413.53;5104964;28;20489;-82
2022/01/27 06:11:50;;;;;;;36.20;19.02;;;;;;;3.40;97.24;102400.63;5112402;28;20028;-82
2022/01/27 06:14:15;;;;;;;40.25;18.85;;;;;;;3.44;97.28;102406.75;5100076;28;20035;-81
2022/01/27 06:16:41;;;;;;;42.72;19.63;;;;;;;3.45;97.11;102405.91;5092405;28;20016;-82
2022/01/27 06:19:07;;;;;;;42.65;21.52;;;;;;;3.42;97.91;102409.28;5101891;28;20024;-81
2022/01/27 06:21:35;;;;;;;43.40;20.08;;;;;;;3.40;98.40;102408.38;5093877;28;20032;-82
2022/01/27 06:24:01;;;;;;;42.47;20.17;;;;;;;3.40;98.94;102410.94;5093847;28;20036;-81
2022/01/27 06:26:28;;;;;;;41.67;19.65;;;;;;;3.36;99.66;102414.22;5092372;28;20028;-81
2022/01/27 06:28:53;;;;;;;42.60;20.45;;;;;;;3.33;99.83;102410.69;5107806;28;20092;-81
2022/01/27 06:31:18;;;;;;;47.45;20.50;;;;;;;3.25;100.00;102397.56;5108455;28;20413;-81
2022/01/27 06:33:43;;;;;;;44.38;20.80;;;;;;;3.29;100.00;102412.28;5110350;28;20486;-81
2022/01/27 06:36:09;;;;;;;46.60;20.75;;;;;;;3.24;100.00;102396.69;5103743;28;20023;-81
2022/01/27 06:38:34;;;;;;;48.72;21.77;;;;;;;3.23;100.00;102400.09;5111326;28;20031;-82
2022/01/27 06:40:59;;;;;;;49.05;21.83;;;;;;;3.25;100.00;102401.00;5112225;28;20044;-82
2022/01/27 06:43:24;;;;;;;46.30;21.25;;;;;;;3.26;100.00;102401.88;5111846;28;20048;-81
2022/01/27 06:45:50;;;;;;;50.40;22.42;;;;;;;3.25;100.00;102389.84;5111309;28;20027;-81
2022/01/27 06:48:15;;;;;;;49.90;22.92;;;;;;;3.26;100.00;102383.84;5111952;28;20034;-81
2022/01/27 06:50:41;;;;;;;43.17;22.15;;;;;;;3.27;100.00;102383.03;5099407;28;20062;-82
2022/01/27 06:53:06;;;;;;;45.67;22.08;;;;;;;3.31;100.00;102371.13;5111514;28;20110;-81
2022/01/27 06:55:31;;;;;;;50.40;22.30;;;;;;;3.31;100.00;102374.56;5111965;28;20024;-82
2022/01/27 06:57:57;;;;;;;48.08;21.05;;;;;;;3.34;100.00;102384.97;5111977;28;20383;-81
2022/01/27 07:00:22;;;;;;;47.50;22.27;;;;;;;3.39;100.00;102385.09;5112880;28;20118;-82
2022/01/27 07:02:47;;;;;;;40.75;21.08;;;;;;;3.45;100.00;102393.91;5111580;28;20082;-82
2022/01/27 07:05:15;;;;;;;47.72;21.83;;;;;;;3.50;100.00;102384.63;5099138;28;20046;-82
2022/01/27 07:07:41;;;;;;;50.75;23.63;;;;;;;3.49;100.00;102374.22;5095500;28;20020;-82
2022/01/27 07:10:06;;;;;;;50.78;23.88;;;;;;;3.52;100.00;102377.78;5096263;28;20028;-82
2022/01/27 07:12:32;;;;;;;52.90;23.55;;;;;;;3.54;100.00;102384.72;5110383;28;20034;-82
2022/01/27 07:14:58;;;;;;;49.33;21.60;;;;;;;3.51;100.00;102377.75;5105000;28;20024;-82
2022/01/27 07:17:23;;;;;;;45.40;21.75;;;;;;;3.53;100.00;102383.81;5098142;28;20031;-82
2022/01/27 07:19:49;;;;;;;49.75;22.20;;;;;;;3.58;100.00;102383.97;5101444;28;20031;-82
2022/01/27 07:22:14;;;;;;;46.92;22.13;;;;;;;3.58;100.00;102378.81;5101140;28;20028;-82
2022/01/27 07:24:39;;;;;;;49.45;22.10;;;;;;;3.58;100.00;102389.13;5107385;28;20028;-83
2022/01/27 07:27:05;;;;;;;48.40;21.50;;;;;;;3.61;100.00;102382.34;5097916;28;20020;-81
2022/01/27 07:29:30;;;;;;;45.60;21.92;;;;;;;3.64;100.00;102385.00;5105123;28;20035;-82
2022/01/27 07:31:56;;;;;;;47.35;22.27;;;;;;;3.66;100.00;102383.38;5097075;28;20024;-82
2022/01/27 07:34:21;;;;;;;47.08;22.35;;;;;;;3.71;100.00;102405.00;5104973;28;20490;-82
2022/01/27 07:36:47;;;;;;;50.70;22.70;;;;;;;3.71;100.00;102375.75;5111974;28;20080;-82
2022/01/27 07:39:16;;;;;;;48.30;22.73;;;;;;;3.76;100.00;102394.84;5097797;28;20494;-82
2022/01/27 07:41:44;;;;;;;46.90;20.67;;;;;;;3.79;100.00;102389.72;5094262;28;20042;-82
2022/01/27 07:44:10;;;;;;;49.72;23.88;;;;;;;3.83;100.00;102389.03;5114548;28;20124;-82
2022/01/27 07:46:35;;;;;;;50.15;23.13;;;;;;;3.86;100.00;102386.53;5106825;28;20059;-81
2022/01/27 07:49:01;;;;;;;52.38;23.17;;;;;;;3.85;100.00;102377.00;5112850;28;20027;-82
2022/01/27 07:51:26;;;;;;;51.42;22.77;;;;;;;3.90;100.00;102390.06;5115589;28;20036;-81
2022/01/27 07:53:51;;;;;;;48.90;22.98;;;;;;;3.92;100.00;102383.22;5101623;28;20157;-82
2022/01/27 07:56:17;;;;;;;46.13;22.90;;;;;;;3.92;100.00;102397.03;5109375;28;20059;-82
2022/01/27 07:58:43;;;;;;;50.97;23.52;;;;;;;3.86;100.00;102389.09;5115061;28;20104;-82
2022/01/27 08:01:09;;;;;;;49.90;23.80;;;;;;;3.80;100.00;102391.50;5115552;28;20093;-82
2022/01/27 08:03:36;;;;;;;47.15;24.35;;;;;;;3.75;100.00;102398.22;5113897;28;20060;-82
2022/01/27 08:06:02;;;;;;;56.28;25.75;;;;;;;3.69;100.00;102405.78;5115393;28;20019;-82
2022/01/27 08:08:27;;;;;;;58.97;25.80;;;;;;;3.62;100.00;102396.09;5109079;28;20035;-82
2022/01/27 08:10:52;;;;;;;59.90;26.30;;;;;;;3.63;100.00;102393.59;5094456;28;20036;-81
2022/01/27 08:13:18;;;;;;;64.00;27.58;;;;;;;3.60;100.00;102400.38;5105544;28;20020;-82
2022/01/27 08:15:44;;;;;;;58.92;25.77;;;;;;;3.63;100.00;102405.59;5101337;28;20362;-82
2022/01/27 08:18:09;;;;;;;69.20;29.70;;;;;;;3.57;100.00;102403.72;5115141;28;20417;-82
2022/01/27 08:20:35;;;;;;;65.05;26.92;;;;;;;3.60;100.00;102402.94;5108830;28;20069;-82
2022/01/27 08:23:00;;;;;;;72.93;29.15;;;;;;;3.60;100.00;102392.63;5093890;28;20516;-82
2022/01/27 08:25:25;;;;;;;72.13;28.30;;;;;;;3.66;100.00;102392.78;5112616;28;20027;-82
2022/01/27 08:27:55;;;;;;;78.85;30.25;;;;;;;3.70;100.00;102399.81;5114538;28;20028;-82
2022/01/27 08:30:24;;;;;;;80.13;32.22;;;;;;;3.70;100.00;102397.22;5114253;28;20042;-82
2022/01/27 08:33:04;;;;;;;75.75;30.45;;;;;;;3.72;100.00;102392.97;5112649;28;20031;-82
2022/01/27 08:35:30;;;;;;;71.07;28.83;;;;;;;3.72;100.00;102391.25;5095063;28;20016;-82
2022/01/27 08:37:55;;;;;;;76.85;31.00;;;;;;;3.72;100.00;102386.09;5093687;28;20043;-83
2022/01/27 08:40:21;;;;;;;81.50;31.02;;;;;;;3.72;100.00;102392.97;5110762;28;20019;-82
2022/01/27 08:42:47;;;;;;;83.75;34.33;;;;;;;3.69;100.00;102393.75;5109764;28;20518;-83
2022/01/27 08:45:19;;;;;;;77.50;30.25;;;;;;;3.63;100.00;102375.53;5093847;28;20140;-83
2022/01/27 08:47:45;;;;;;;83.07;31.58;;;;;;;3.70;100.00;102389.50;5100444;28;20049;-83
2022/01/27 08:50:13;;;;;;;81.00;32.10;;;;;;;3.68;100.00;102385.97;5114772;28;20106;-84
2022/01/27 08:52:39;;;;;;;90.15;34.17;;;;;;;3.68;100.00;102392.00;5113144;28;20031;-83
2022/01/27 08:55:06;;;;;;;83.47;33.35;;;;;;;3.70;100.00;102384.34;5114601;28;20065;-83
2022/01/27 08:57:32;;;;;;;81.50;32.60;;;;;;;3.76;100.00;102394.84;5113972;28;20059;-83
2022/01/27 09:00:00;;;;;;;81.20;32.42;;;;;;;3.81;100.00;102385.50;5107064;28;20024;-83
2022/01/27 09:02:26;;;;;;;78.97;33.17;;;;;;;3.86;100.00;102386.53;5109173;28;20115;-82
2022/01/27 09:04:52;;;;;;;87.15;32.78;;;;;;;3.90;100.00;102380.63;5111123;28;20114;-84
2022/01/27 09:07:17;;;;;;;81.25;30.35;;;;;;;3.94;100.00;102389.31;5112472;28;20539;-85
2022/01/27 09:09:43;;;;;;;86.78;32.95;;;;;;;3.98;100.00;102384.28;5110239;28;20027;-84
2022/01/27 09:12:09;;;;;;;88.72;35.67;;;;;;;4.04;100.00;102377.56;5106896;28;20024;-83
2022/01/27 09:14:35;;;;;;;98.80;36.15;;;;;;;4.10;100.00;102380.31;5102595;28;20386;-83
2022/01/27 09:17:00;;;;;;;94.22;36.92;;;;;;;4.13;100.00;102370.06;5109182;28;20020;-85
2022/01/27 09:19:27;;;;;;;83.45;33.55;;;;;;;4.23;100.00;102379.81;5093743;28;20085;-84
2022/01/27 09:21:54;;;;;;;90.00;34.92;;;;;;;4.28;100.00;102385.94;5112673;28;20019;-85
2022/01/27 09:24:26;;;;;;;87.50;34.78;;;;;;;4.33;100.00;102376.63;5112766;27;20024;-85
2022/01/27 09:26:59;;;;;;;80.85;37.85;;;;;;;4.33;100.00;102392.13;5112803;28;20071;-85
2022/01/27 09:29:25;;;;;;;77.00;33.97;;;;;;;4.28;100.00;102380.78;5113743;28;20070;-85
2022/01/27 09:31:54;;;;;;;80.53;35.00;;;;;;;4.31;100.00;102380.88;5113457;28;20748;-85
2022/01/27 09:34:19;;;;;;;69.25;31.95;;;;;;;4.33;100.00;102384.38;5107633;28;20028;-84
2022/01/27 09:36:49;;;;;;;78.75;33.40;;;;;;;4.32;100.00;102374.91;5113072;28;20034;-85
2022/01/27 09:39:16;;;;;;;81.45;33.58;;;;;;;4.35;100.00;102379.25;5113598;28;20019;-85
2022/01/27 09:41:42;;;;;;;81.30;34.40;;;;;;;4.33;100.00;102379.22;5108951;28;20035;-86
2022/01/27 09:44:11;;;;;;;88.10;34.97;;;;;;;4.32;100.00;102385.22;5109058;28;20050;-85
2022/01/27 09:46:39;;;;;;;81.40;34.45;;;;;;;4.37;100.00;102378.47;5113281;28;20028;-84
2022/01/27 09:49:11;;;;;;;75.10;34.60;;;;;;;4.39;100.00;102378.50;5100972;28;20081;-85
2022/01/27 09:51:40;;;;;;;80.72;33.85;;;;;;;4.37;100.00;102372.41;5092502;28;20494;-85
2022/01/27 09:54:06;;;;;;;84.80;35.70;;;;;;;4.42;100.00;102391.50;5092404;28;20043;-86
2022/01/27 09:56:31;;;;;;;79.55;31.95;;;;;;;4.42;100.00;102397.53;5092806;28;20024;-85
2022/01/27 09:58:57;;;;;;;87.88;35.90;;;;;;;4.40;100.00;102391.44;5092722;28;20394;-85
2022/01/27 10:01:22;;;;;;;84.30;33.83;;;;;;;4.37;100.00;102391.38;5092077;28;20055;-85
2022/01/27 10:04:00;;;;;;;81.63;34.38;;;;;;;4.40;100.00;102400.91;5092456;28;20032;-85
2022/01/27 10:06:31;;;;;;;82.15;32.70;;;;;;;4.42;100.00;102400.13;5092364;28;20024;-85
2022/01/27 10:09:23;;;;;;;77.38;30.98;;;;;;;4.42;100.00;102400.13;5091690;28;20471;-86
2022/01/27 10:11:50;;;;;;;74.72;31.60;;;;;;;4.44;100.00;102397.56;5092205;28;20085;-85
2022/01/27 10:14:20;;;;;;;80.95;32.75;;;;;;;4.44;100.00;102398.44;5092602;28;20028;-85
2022/01/27 10:16:49;;;;;;;73.90;31.45;;;;;;;4.46;100.00;102404.53;5091199;28;20024;-85
2022/01/27 10:19:15;;;;;;;72.28;32.67;;;;;;;4.45;100.00;102389.88;5092540;28;20467;-85
2022/01/27 10:21:40;;;;;;;77.90;33.28;;;;;;;4.48;100.00;102386.50;5092123;28;20032;-85
2022/01/27 10:24:24;;;;;;;80.85;32.35;;;;;;;4.55;100.00;102384.97;5091621;28;20039;-85
2022/01/27 10:27:20;;;;;;;77.22;32.45;;;;;;;4.59;100.00;102391.94;5092161;28;20081;-85
2022/01/27 10:32:43;;;;;;;72.20;31.98;;;;;;;4.60;100.00;102393.69;5092641;28;20115;-85
2022/01/27 10:35:11;;;;;;;73.05;32.60;;;;;;;4.61;100.00;102398.00;5099898;28;20031;-86
2022/01/27 10:37:56;;;;;;;72.15;33.17;;;;;;;4.63;100.00;102393.75;5106350;28;20374;-86
2022/01/27 10:40:35;;;;;;;75.53;34.65;;;;;;;4.64;100.00;102385.16;5104335;28;20073;-85
2022/01/27 10:43:17;;;;;;;74.97;33.33;;;;;;;4.67;100.00;102382.66;5105737;28;20107;-85
2022/01/27 10:46:09;;;;;;;77.57;37.75;;;;;;;4.65;100.00;102376.59;5093945;28;20052;-83
2022/01/27 10:48:40;;;;;;;80.38;33.83;;;;;;;4.67;100.00;102395.59;5097815;28;20474;-83
2022/01/27 10:51:13;;;;;;;70.68;32.38;;;;;;;4.65;100.00;102386.94;5111508;28;20102;-83
2022/01/27 10:53:59;;;;;;;71.70;31.42;;;;;;;4.68;100.00;102389.59;5094622;28;20024;-82
2022/01/27 10:56:35;;;;;;;70.93;33.42;;;;;;;4.68;100.00;102387.88;5093694;28;20024;-82
2022/01/27 10:59:04;;;;;;;75.47;33.00;;;;;;;4.72;100.00;102382.81;5096778;28;20039;-82
2022/01/27 11:01:37;;;;;;;67.13;31.98;;;;;;;4.73;100.00;102389.72;5091614;28;20020;-82
2022/01/27 11:04:05;;;;;;;78.93;32.90;;;;;;;4.75;100.00;102383.75;5109050;28;20101;-82
2022/01/27 11:06:32;;;;;;;82.70;33.40;;;;;;;4.82;100.00;102385.66;5111217;28;20035;-82
2022/01/27 11:09:02;;;;;;;79.53;34.33;;;;;;;4.86;100.00;102382.28;5106440;28;20039;-83
2022/01/27 11:11:27;;;;;;;76.40;34.70;;;;;;;4.88;100.00;102370.28;5105798;28;20107;-84
2022/01/27 11:13:54;;;;;;;86.97;37.10;;;;;;;4.97;100.00;102385.16;5111546;28;20112;-84
2022/01/27 11:16:27;;;;;;;80.57;34.83;;;;;;;4.97;100.00;102374.81;5112118;28;20477;-84
2022/01/27 11:18:56;;;;;;;75.85;36.20;;;;;;;5.06;100.00;102368.97;5111296;28;20059;-84
2022/01/27 11:21:32;;;;;;;77.00;35.58;;;;;;;5.10;100.00;102369.09;5105020;28;20024;-83
2022/01/27 11:24:13;;;;;;;80.82;35.72;;;;;;;5.14;100.00;102363.16;5110606;28;20024;-84
2022/01/27 11:26:40;;;;;;;77.03;35.75;;;;;;;5.17;100.00;102357.19;5099409;28;20114;-84
2022/01/27 11:29:08;;;;;;;81.60;36.97;;;;;;;5.25;100.00;102360.81;5102140;28;20376;-83
2022/01/27 11:31:52;;;;;;;82.75;36.42;;;;;;;5.29;100.00;102341.06;5103713;28;20032;-83
2022/01/27 11:34:17;;;;;;;;;;;;;;;5.36;100.00;102348.13;5091637;28;20028;-83
2022/01/27 11:37:04;;;;;;;82.13;34.08;;;;;;;5.48;100.00;102342.34;5102757;28;19927;-83
2022/01/27 11:39:52;;;;;;;80.53;37.50;;;;;;;5.52;100.00;102345.03;5110804;28;20027;-83
2022/01/27 11:42:41;;;;;;;71.80;33.22;;;;;;;5.53;100.00;102340.75;5107070;28;20035;-84
2022/01/27 11:45:26;;;;;;;76.75;35.60;;;;;;;5.56;100.00;102340.81;5099142;28;20108;-85
2022/01/27 11:48:06;;;;;;;76.45;34.53;;;;;;;5.55;100.00;102319.22;5112987;28;20046;-85
2022/01/27 11:50:55;;;;;;;85.55;34.95;;;;;;;5.62;100.00;102327.97;5108611;28;20084;-85
2022/01/27 11:53:32;;;;;;;74.22;35.35;;;;;;;5.68;100.00;102340.19;5095346;28;20379;-85
2022/01/27 11:55:59;;;;;;;79.55;34.92;;;;;;;5.66;100.00;102334.09;5096182;28;20051;-86
2022/01/27 11:58:26;;;;;;;72.35;34.10;;;;;;;5.64;100.00;102324.59;5100782;28;20047;-84
2022/01/27 12:01:04;;;;;;;70.60;33.60;;;;;;;5.70;100.00;102336.78;5105286;28;20024;-85
2022/01/27 12:03:29;;;;;;;72.18;35.33;;;;;;;5.74;100.00;102340.31;5094967;28;20391;-84
2022/01/27 12:06:18;;;;;;;77.50;35.42;;;;;;;5.77;100.00;102341.25;5108671;28;20031;-84
2022/01/27 12:08:43;;;;;;;76.15;34.45;;;;;;;5.74;100.00;102338.59;5114216;28;20028;-83